Time;durP1;ratioP1;P1;durP2;ratioP2;P2;SDS_P1;SDS_P2;PMS_P1;PMS_P2;Temp;Humidity;BMP_temperature;BMP_pressure;BME280_temperature;BME280_humidity;BME280_pressure;Samples;Min_cycle;Max_cycle;Signal;HPM_P1;HPM_P2
2023/04/28 00:02:37;;;;;;;6.03;3.83;;;;;;;14.27;51.52;98462.63;7008487;28;20291;-83
2023/04/28 00:05:59;;;;;;;4.27;3.87;;;;;;;15.36;50.81;98582.00;7008576;28;20379;-83
2023/04/28 00:09:20;;;;;;;10.70;3.83;;;;;;;15.05;49.84;98509.91;7008889;28;20612;-83
2023/04/28 00:12:43;;;;;;;4.23;3.80;;;;;;;15.39;50.15;98584.25;7007480;28;20225;-83
2023/04/28 00:16:05;;;;;;;4.83;3.53;;;;;;;15.36;50.58;98562.97;7009033;28;20713;-83
2023/04/28 00:19:27;;;;;;;4.70;4.00;;;;;;;15.45;50.00;98543.34;7008438;28;20289;-83
2023/04/28 00:22:49;;;;;;;5.43;3.50;;;;;;;15.12;49.59;98469.03;7008244;28;20206;-82
2023/04/28 00:26:11;;;;;;;5.17;3.70;;;;;;;15.52;49.96;98563.03;6987590;28;20236;-82
2023/04/28 00:29:34;;;;;;;9.70;4.50;;;;;;;15.10;50.78;98547.22;6974600;28;20343;-83
2023/04/28 00:32:55;;;;;;;4.07;3.67;;;;;;;15.23;50.64;98534.16;6992513;28;20341;-84
2023/04/28 00:36:17;;;;;;;4.23;3.70;;;;;;;15.56;50.09;98558.78;7001795;28;20212;-84
2023/04/28 00:39:40;;;;;;;5.53;3.80;;;;;;;15.58;50.57;98547.66;6977452;28;20213;-84
2023/04/28 00:43:01;;;;;;;3.90;3.60;;;;;;;15.44;50.53;98543.56;6962455;28;20212;-83
2023/04/28 00:46:27;;;;;;;5.40;3.53;;;;;;;15.53;50.94;98533.97;6953643;28;20228;-85
2023/04/28 00:49:49;;;;;;;5.47;3.60;;;;;;;15.52;50.61;98535.84;6953473;28;20234;-84
2023/04/28 00:53:10;;;;;;;3.80;3.50;;;;;;;15.77;50.07;98549.94;6953912;28;20581;-84
2023/04/28 00:56:32;;;;;;;8.00;3.93;;;;;;;15.62;50.24;98544.22;6954941;28;20317;-83
2023/04/28 00:59:54;;;;;;;4.13;3.43;;;;;;;15.56;50.69;98538.91;6954451;28;20229;-84
2023/04/28 01:03:16;;;;;;;6.97;4.20;;;;;;;15.66;50.46;98526.38;6953076;28;20307;-83
2023/04/28 01:06:38;;;;;;;3.73;3.43;;;;;;;15.66;50.81;98533.69;6953963;28;20764;-83
2023/04/28 01:09:59;;;;;;;5.83;3.70;;;;;;;15.95;49.81;98529.84;6955272;28;20244;-83
2023/04/28 01:13:21;;;;;;;3.80;3.50;;;;;;;15.83;50.49;98521.78;6956607;28;20503;-83
2023/04/28 01:16:43;;;;;;;5.00;4.00;;;;;;;15.54;51.11;98517.44;6957574;28;20208;-83
2023/04/28 01:20:07;;;;;;;4.47;4.07;;;;;;;15.68;51.24;98529.66;6968306;28;20200;-83
2023/04/28 01:23:29;;;;;;;6.53;4.77;;;;;;;15.72;50.37;98484.63;6975478;28;20244;-83
2023/04/28 01:26:52;;;;;;;5.33;4.00;;;;;;;15.56;51.37;98519.88;6974945;28;20327;-84
2023/04/28 01:30:14;;;;;;;5.80;4.07;;;;;;;15.45;51.91;98520.78;6963595;28;20208;-82
2023/04/28 01:33:35;;;;;;;6.13;4.60;;;;;;;15.42;52.12;98518.56;6950891;28;20204;-83
2023/04/28 01:36:57;;;;;;;7.87;4.57;;;;;;;15.26;51.31;98452.22;6950696;28;20611;-83
2023/04/28 01:40:18;;;;;;;4.77;4.37;;;;;;;15.84;50.96;98501.69;6950963;28;20296;-83
2023/04/28 01:43:42;;;;;;;7.30;5.00;;;;;;;15.93;50.91;98497.47;6950536;28;20287;-83
2023/04/28 01:47:04;;;;;;;5.20;4.63;;;;;;;15.97;50.21;98484.19;6958603;28;20241;-83
2023/04/28 01:50:26;;;;;;;4.77;4.30;;;;;;;15.24;52.70;98484.25;6978282;28;20584;-83
2023/04/28 01:53:47;;;;;;;8.33;4.80;;;;;;;15.64;52.09;98495.06;6978697;28;20225;-85
2023/04/28 01:57:08;;;;;;;7.43;4.83;;;;;;;15.51;52.40;98485.31;6977704;28;20297;-83
2023/04/28 02:00:31;;;;;;;5.60;4.33;;;;;;;15.20;53.58;98482.22;6977007;28;20285;-83
2023/04/28 02:03:55;;;;;;;7.73;4.30;;;;;;;15.39;53.97;98478.31;6975351;28;20318;-83
2023/04/28 02:07:16;;;;;;;5.50;4.07;;;;;;;15.56;53.50;98474.53;6977149;28;20217;-83
2023/04/28 02:10:38;;;;;;;5.80;4.13;;;;;;;16.07;52.98;98482.50;6976931;28;20299;-83
2023/04/28 02:13:59;;;;;;;7.60;4.37;;;;;;;16.27;52.55;98477.34;6976829;28;20259;-83
2023/04/28 02:17:22;;;;;;;8.13;4.43;;;;;;;16.15;52.90;98463.03;6976068;28;20650;-84
2023/04/28 02:20:43;;;;;;;4.90;4.30;;;;;;;16.10;52.03;98446.63;6974637;28;20346;-83
2023/04/28 02:24:06;;;;;;;8.77;4.60;;;;;;;16.13;52.73;98456.19;6971068;28;20687;-83
2023/04/28 02:27:28;;;;;;;6.20;4.23;;;;;;;15.67;53.32;98454.63;7002695;28;20290;-83
2023/04/28 02:30:49;;;;;;;5.50;3.90;;;;;;;15.82;53.24;98468.44;7002638;28;20289;-83
2023/04/28 02:34:14;;;;;;;6.00;4.50;;;;;;;15.59;53.17;98410.72;7003348;28;20234;-84
2023/04/28 02:37:35;;;;;;;4.87;4.10;;;;;;;16.10;52.60;98462.13;7004285;28;20297;-84
2023/04/28 02:40:59;;;;;;;5.47;4.20;;;;;;;15.99;53.21;98436.66;6972843;28;20211;-83
2023/04/28 02:44:21;;;;;;;4.23;3.93;;;;;;;16.25;52.51;98432.44;6976434;28;20703;-83
2023/04/28 02:47:43;;;;;;;5.03;3.77;;;;;;;16.47;51.83;98436.03;6979363;28;20249;-83
2023/04/28 02:51:06;;;;;;;5.37;4.13;;;;;;;16.16;52.61;98444.81;6960841;28;20217;-84
2023/04/28 02:54:27;;;;;;;4.50;3.87;;;;;;;15.95;53.70;98456.44;6950922;28;20266;-83
2023/04/28 02:57:49;;;;;;;5.20;3.80;;;;;;;15.63;53.60;98393.66;6949885;28;20247;-83
2023/04/28 03:01:10;;;;;;;10.40;3.93;;;;;;;16.03;53.23;98445.97;6950044;28;20201;-83
2023/04/28 03:04:32;;;;;;;5.53;3.77;;;;;;;16.05;53.19;98446.53;6948767;28;20320;-84
2023/04/28 03:07:55;;;;;;;4.03;3.47;;;;;;;16.33;52.67;98451.06;6949177;28;20236;-83
2023/04/28 03:11:16;;;;;;;4.23;3.83;;;;;;;16.19;52.90;98456.03;6949508;28;20574;-83
2023/04/28 03:14:38;;;;;;;5.13;3.70;;;;;;;16.30;52.86;98463.25;6972258;28;20356;-84
2023/04/28 03:17:59;;;;;;;5.60;3.70;;;;;;;16.27;53.43;98463.75;6976808;28;20300;-84
2023/04/28 03:21:20;;;;;;;4.80;3.47;;;;;;;16.31;53.51;98454.03;6953914;28;20350;-84
2023/04/28 03:24:43;;;;;;;4.53;4.13;;;;;;;16.12;53.69;98462.69;6948854;28;20252;-83
2023/04/28 03:28:05;;;;;;;4.97;4.10;;;;;;;15.96;54.13;98444.50;6949600;28;20324;-84
2023/04/28 03:31:26;;;;;;;6.33;4.13;;;;;;;15.59;55.06;98452.31;6976391;28;20262;-83
2023/04/28 03:34:48;;;;;;;4.40;3.63;;;;;;;15.56;56.30;98417.47;6982670;28;20718;-83
2023/04/28 03:38:09;;;;;;;4.33;3.90;;;;;;;15.27;57.57;98426.69;6982764;28;20349;-84
2023/04/28 03:41:32;;;;;;;4.43;4.03;;;;;;;15.77;56.17;98434.94;6982136;28;20259;-84
2023/04/28 03:44:54;;;;;;;4.83;4.10;;;;;;;15.48;56.15;98347.25;6981973;28;20299;-84
2023/04/28 03:48:15;;;;;;;5.23;4.67;;;;;;;16.11;55.90;98436.56;6988240;28;20221;-83
2023/04/28 03:51:37;;;;;;;7.30;4.97;;;;;;;16.09;55.84;98447.69;6987609;28;20260;-83
2023/04/28 03:54:58;;;;;;;4.93;4.43;;;;;;;15.52;57.01;98442.66;6985541;28;20899;-84
2023/04/28 03:58:21;;;;;;;4.20;3.90;;;;;;;15.69;56.82;98432.63;6980762;28;20297;-84
2023/04/28 04:01:43;;;;;;;6.17;3.90;;;;;;;16.03;56.77;98447.84;6980240;28;20223;-84
2023/04/28 04:05:05;;;;;;;5.20;4.20;;;;;;;16.34;55.56;98409.97;6979237;28;20322;-84
2023/04/28 04:08:26;;;;;;;6.27;4.70;;;;;;;16.23;55.42;98410.09;6981632;28;20368;-84
2023/04/28 04:11:48;;;;;;;6.27;3.87;;;;;;;15.89;57.46;98427.53;6982263;28;20199;-84
2023/04/28 04:15:11;;;;;;;5.03;4.50;;;;;;;15.15;59.77;98441.41;6982000;28;20310;-84
2023/04/28 04:18:33;;;;;;;7.20;4.73;;;;;;;14.92;60.96;98419.78;6982263;28;20208;-84
2023/04/28 04:21:55;;;;;;;5.20;4.60;;;;;;;15.60;59.35;98437.66;6981606;28;20232;-84
2023/04/28 04:25:16;;;;;;;5.10;4.60;;;;;;;16.07;57.95;98414.50;6981797;28;20228;-84
2023/04/28 04:28:38;;;;;;;6.63;4.60;;;;;;;16.35;56.92;98427.94;6981888;28;20683;-84
2023/04/28 04:32:01;;;;;;;4.53;4.13;;;;;;;15.89;57.53;98427.53;6982381;28;20294;-84
2023/04/28 04:35:22;;;;;;;5.07;4.53;;;;;;;15.36;59.90;98416.28;6982238;28;20265;-83
2023/04/28 04:38:44;;;;;;;5.73;4.30;;;;;;;15.98;58.47;98423.31;6985070;28;20291;-84
2023/04/28 04:42:06;;;;;;;7.97;4.97;;;;;;;15.78;58.75;98403.97;6984138;28;20680;-84
2023/04/28 04:45:27;;;;;;;4.57;4.03;;;;;;;16.03;58.16;98399.75;6982406;28;20711;-84
2023/04/28 04:48:50;;;;;;;6.33;4.93;;;;;;;16.10;58.38;98430.31;6981476;28;20777;-84
2023/04/28 04:52:12;;;;;;;6.90;4.80;;;;;;;15.50;59.69;98420.34;6980875;28;20210;-84
2023/04/28 04:55:34;;;;;;;6.70;4.80;;;;;;;16.02;58.88;98411.69;6981442;28;20228;-84
2023/04/28 04:58:56;;;;;;;5.57;4.80;;;;;;;16.45;58.10;98422.69;6990393;28;20197;-84
2023/04/28 05:02:17;;;;;;;6.87;4.37;;;;;;;16.45;57.41;98411.00;6992033;28;20274;-85
2023/04/28 05:05:40;;;;;;;5.50;4.87;;;;;;;16.37;57.89;98428.53;6987392;28;20276;-85
2023/04/28 05:09:02;;;;;;;5.23;4.73;;;;;;;16.30;58.58;98424.34;6982298;28;20209;-84
2023/04/28 05:12:24;;;;;;;6.70;4.80;;;;;;;16.58;58.25;98416.06;6990842;28;20231;-84
2023/04/28 05:15:45;;;;;;;4.90;4.50;;;;;;;16.52;57.93;98387.13;6987346;28;20740;-84
2023/04/28 05:19:07;;;;;;;6.17;4.87;;;;;;;16.75;57.62;98408.66;6973561;28;20210;-84
2023/04/28 05:22:30;;;;;;;6.07;4.97;;;;;;;16.72;57.91;98412.72;6983985;28;20264;-84
2023/04/28 05:25:52;;;;;;;5.30;4.80;;;;;;;16.08;59.46;98386.22;6979916;28;20268;-84
2023/04/28 05:29:13;;;;;;;6.77;5.13;;;;;;;16.25;59.65;98407.94;6973527;28;20296;-84
2023/04/28 05:32:35;;;;;;;5.37;4.77;;;;;;;16.33;59.67;98402.91;6977847;28;20211;-84
2023/04/28 05:35:57;;;;;;;5.80;4.73;;;;;;;15.85;61.32;98410.88;6980153;28;20231;-84
2023/04/28 05:39:20;;;;;;;6.20;4.87;;;;;;;16.05;60.87;98429.41;6980572;28;20196;-84
2023/04/28 05:42:41;;;;;;;5.67;5.03;;;;;;;16.40;59.45;98403.56;6978937;28;20203;-84
2023/04/28 05:46:03;;;;;;;4.80;4.40;;;;;;;17.06;57.68;98414.19;6978963;28;20609;-84
2023/04/28 05:49:25;;;;;;;3.80;3.50;;;;;;;16.77;57.92;98387.44;6979844;28;20647;-84
2023/04/28 05:52:47;;;;;;;4.33;3.93;;;;;;;16.87;58.78;98421.03;6978571;28;20205;-83
2023/04/28 05:56:10;;;;;;;4.40;4.00;;;;;;;16.87;58.96;98412.88;6978894;28;20271;-84
2023/04/28 05:59:31;;;;;;;7.83;4.50;;;;;;;17.18;58.53;98425.78;6962050;28;20680;-84
2023/04/28 06:02:53;;;;;;;7.37;4.50;;;;;;;16.73;59.08;98398.00;6978357;28;20286;-84
2023/04/28 06:06:15;;;;;;;5.77;4.20;;;;;;;17.37;57.91;98416.16;6970621;28;20320;-84
2023/04/28 06:09:36;;;;;;;5.60;4.53;;;;;;;16.93;57.62;98353.84;6980224;28;20208;-84
2023/04/28 06:13:00;;;;;;;4.73;4.20;;;;;;;17.41;57.64;98414.59;6974073;28;20228;-84
2023/04/28 06:16:22;;;;;;;6.37;4.93;;;;;;;17.37;57.97;98415.31;6983584;28;20229;-84
2023/04/28 06:19:43;;;;;;;6.00;4.70;;;;;;;17.44;57.83;98421.41;6978998;28;20202;-86
2023/04/28 06:23:05;;;;;;;5.17;4.50;;;;;;;17.27;57.88;98407.06;6987148;28;20268;-86
2023/04/28 06:26:27;;;;;;;4.97;4.43;;;;;;;17.27;58.31;98434.31;7006568;28;20236;-85
2023/04/28 06:29:50;;;;;;;5.80;4.77;;;;;;;16.54;58.07;98308.75;7006944;28;20846;-85
2023/04/28 06:33:11;;;;;;;4.77;4.37;;;;;;;17.08;59.32;98420.22;7007950;28;20779;-85
2023/04/28 06:36:33;;;;;;;6.53;4.93;;;;;;;16.55;61.20;98419.25;7008160;28;20353;-85
2023/04/28 06:39:54;;;;;;;5.43;4.80;;;;;;;16.89;60.72;98410.72;6981729;28;20275;-83
2023/04/28 06:43:16;;;;;;;6.10;5.50;;;;;;;16.21;62.81;98407.63;6982535;28;20295;-84
2023/04/28 06:46:39;;;;;;;6.83;5.40;;;;;;;16.24;63.19;98398.13;6985717;28;20266;-85
2023/04/28 06:50:01;;;;;;;5.07;4.67;;;;;;;16.79;62.24;98396.16;6965232;28;20202;-85
2023/04/28 06:53:22;;;;;;;6.40;5.23;;;;;;;16.47;63.51;98381.63;6960716;28;20206;-84
2023/04/28 06:56:44;;;;;;;7.07;5.10;;;;;;;16.67;63.03;98400.91;6985497;28;20627;-86
2023/04/28 07:00:07;;;;;;;5.60;4.70;;;;;;;16.71;63.12;98391.16;6977663;28;20242;-86
2023/04/28 07:03:30;;;;;;;4.50;4.10;;;;;;;16.78;62.91;98394.50;6977119;28;20218;-84
2023/04/28 07:06:52;;;;;;;7.00;4.73;;;;;;;16.46;63.55;98325.56;6977089;28;20272;-84
2023/04/28 07:10:14;;;;;;;4.83;4.30;;;;;;;16.96;62.65;98377.84;6989823;28;20197;-85
2023/04/28 07:13:36;;;;;;;4.70;4.30;;;;;;;16.57;62.98;98314.53;6989685;28;20198;-85
2023/04/28 07:16:57;;;;;;;4.53;4.13;;;;;;;16.86;64.02;98388.63;6979011;28;20231;-84
2023/04/28 07:20:20;;;;;;;6.83;4.50;;;;;;;16.98;63.29;98376.50;6974791;28;20255;-84
2023/04/28 07:23:42;;;;;;;4.60;4.07;;;;;;;16.60;64.99;98381.22;6977789;28;20229;-84
2023/04/28 07:27:03;;;;;;;4.13;3.83;;;;;;;16.69;64.90;98368.84;7001919;28;20242;-84
2023/04/28 07:30:25;;;;;;;3.97;3.67;;;;;;;16.46;64.84;98369.91;7000825;28;20304;-84
2023/04/28 07:33:46;;;;;;;5.00;4.00;;;;;;;16.06;65.99;98365.78;6976849;28;20268;-85
2023/04/28 07:37:10;;;;;;;4.77;4.03;;;;;;;16.91;64.73;98377.78;6962605;28;20285;-84
2023/04/28 07:40:32;;;;;;;3.97;3.57;;;;;;;17.15;63.66;98350.00;7004743;28;20204;-85
2023/04/28 07:43:53;;;;;;;4.60;4.20;;;;;;;17.02;63.24;98371.38;6982503;28;20281;-84
2023/04/28 07:47:15;;;;;;;4.47;4.10;;;;;;;16.43;64.24;98283.34;6977286;28;20331;-86
2023/04/28 07:50:37;;;;;;;5.03;4.40;;;;;;;16.46;63.44;98277.38;6976530;28;20205;-85
2023/04/28 07:54:00;;;;;;;4.87;4.03;;;;;;;17.71;61.88;98337.69;6976068;28;20316;-85
2023/04/28 07:57:21;;;;;;;3.80;3.50;;;;;;;17.35;62.82;98360.25;6990559;28;20261;-84
2023/04/28 08:00:43;;;;;;;3.87;3.57;;;;;;;17.26;61.17;98270.00;6976634;28;20351;-85
2023/04/28 08:04:05;;;;;;;5.37;3.53;;;;;;;17.79;60.69;98351.66;6975634;28;20253;-85
2023/04/28 08:07:26;;;;;;;6.43;4.30;;;;;;;17.87;61.43;98351.16;6976750;28;20229;-83
2023/04/28 08:10:49;;;;;;;4.33;3.73;;;;;;;17.38;62.43;98381.56;6977046;28;20195;-83
2023/04/28 08:14:11;;;;;;;5.03;4.53;;;;;;;17.62;62.21;98388.31;6979599;28;20226;-83
2023/04/28 08:17:32;;;;;;;6.10;5.40;;;;;;;17.78;61.80;98387.38;6982975;28;20205;-84
2023/04/28 08:20:54;;;;;;;6.33;5.40;;;;;;;17.05;64.53;98384.50;6984214;28;20212;-85
2023/04/28 08:24:15;;;;;;;7.37;6.10;;;;;;;16.43;64.97;98362.25;6980564;28;20261;-83
2023/04/28 08:27:39;;;;;;;6.90;5.60;;;;;;;16.67;66.03;98409.91;6980679;28;20223;-83
2023/04/28 08:31:00;;;;;;;7.23;6.00;;;;;;;16.69;66.31;98402.31;6980582;28;20690;-85
2023/04/28 08:34:22;;;;;;;7.03;5.47;;;;;;;16.06;66.60;98357.63;6979118;28;20678;-84
2023/04/28 08:37:44;;;;;;;5.97;5.30;;;;;;;16.16;66.24;98393.13;6981012;28;20295;-83
2023/04/28 08:41:05;;;;;;;6.13;5.53;;;;;;;17.25;64.85;98439.19;6981057;28;20333;-83
2023/04/28 08:44:28;;;;;;;8.53;6.83;;;;;;;17.57;63.27;98391.84;6980375;28;20380;-84
2023/04/28 08:47:51;;;;;;;8.97;5.90;;;;;;;17.48;62.33;98333.44;6973277;28;20311;-83
2023/04/28 08:51:15;;;;;;;6.37;5.77;;;;;;;17.84;61.75;98436.25;6986593;28;20356;-85
2023/04/28 08:54:38;;;;;;;8.33;5.73;;;;;;;17.45;64.04;98440.25;6962577;28;20219;-84
2023/04/28 08:58:00;;;;;;;7.70;6.80;;;;;;;16.91;66.06;98433.09;6952036;28;20210;-84
2023/04/28 09:01:23;;;;;;;4.77;4.30;;;;;;;17.59;64.40;98435.19;6952007;28;20732;-85
2023/04/28 09:04:46;;;;;;;4.43;4.03;;;;;;;18.04;63.66;98433.66;6951714;28;20324;-84
2023/04/28 09:08:10;;;;;;;6.03;5.53;;;;;;;18.00;63.50;98421.66;6952280;28;20268;-85
2023/04/28 09:11:32;;;;;;;5.37;4.93;;;;;;;17.82;64.04;98432.13;6974852;28;20214;-85
2023/04/28 09:14:58;;;;;;;4.70;4.30;;;;;;;17.52;65.75;98454.47;6977737;28;20658;-85
2023/04/28 09:18:20;;;;;;;7.43;6.23;;;;;;;17.81;65.27;98442.22;6978608;28;20713;-85
2023/04/28 09:21:50;;;;;;;5.60;4.80;;;;;;;18.43;64.25;98451.44;6980487;28;20199;-85
2023/04/28 09:25:12;;;;;;;4.77;4.30;;;;;;;18.88;62.02;98437.22;6979088;28;20279;-85
2023/04/28 09:28:35;;;;;;;5.90;4.10;;;;;;;18.82;62.48;98430.09;6978797;28;20230;-84
2023/04/28 09:32:12;;;;;;;5.57;3.73;;;;;;;18.84;62.41;98438.81;6977967;28;20590;-85
2023/04/28 09:35:41;;;;;;;4.87;4.47;;;;;;;19.09;61.34;98422.50;6978599;28;20226;-85
2023/04/28 09:39:02;;;;;;;5.80;5.07;;;;;;;18.54;62.17;98436.78;6981433;28;20206;-83
2023/04/28 09:42:32;;;;;;;5.60;5.00;;;;;;;18.92;62.70;98450.06;6979791;28;20217;-85
2023/04/28 09:45:54;;;;;;;5.03;4.63;;;;;;;17.85;64.12;98374.31;6978971;28;20330;-84
2023/04/28 09:49:15;;;;;;;6.23;5.60;;;;;;;18.36;63.60;98429.03;6981489;28;20292;-85
2023/04/28 09:52:38;;;;;;;6.83;6.13;;;;;;;18.61;63.73;98434.63;6979038;28;20234;-85
2023/04/28 09:56:02;;;;;;;6.87;6.20;;;;;;;19.01;63.50;98423.03;6979279;28;20245;-84
2023/04/28 09:59:24;;;;;;;5.30;4.67;;;;;;;19.32;62.13;98408.41;6979770;28;20201;-84
2023/04/28 10:02:45;;;;;;;6.17;5.00;;;;;;;19.54;62.13;98433.59;6981990;28;20233;-83
2023/04/28 10:06:07;;;;;;;6.83;5.50;;;;;;;19.43;62.15;98415.53;6987250;28;20272;-85
2023/04/28 10:09:31;;;;;;;6.97;6.37;;;;;;;19.79;61.80;98419.94;6984359;28;20293;-82
2023/04/28 10:12:53;;;;;;;7.53;6.83;;;;;;;20.16;61.39;98413.13;6985904;28;20248;-87
2023/04/28 10:16:14;;;;;;;6.63;6.03;;;;;;;20.35;60.71;98427.84;6983867;28;20250;-84
2023/04/28 10:19:36;;;;;;;6.20;5.60;;;;;;;20.55;58.99;98433.31;6995438;28;20205;-81
2023/04/28 10:23:05;;;;;;;5.80;5.30;;;;;;;20.02;60.65;98428.44;6988045;28;20203;-83
2023/04/28 10:26:56;;;;;;;5.37;4.87;;;;;;;20.82;58.79;98422.81;7005785;28;20236;-83
2023/04/28 10:30:20;;;;;;;4.67;4.27;;;;;;;20.59;58.33;98397.97;6984412;28;20338;-83
2023/04/28 10:33:42;;;;;;;6.33;4.20;;;;;;;20.91;57.33;98398.41;6994289;28;20232;-84
2023/04/28 10:37:04;;;;;;;4.40;4.00;;;;;;;20.40;58.78;98410.63;6990251;28;20334;-84
2023/04/28 10:40:32;;;;;;;6.47;4.83;;;;;;;20.54;59.53;98404.28;7003783;28;20304;-86
2023/04/28 10:43:55;;;;;;;4.97;4.47;;;;;;;20.62;60.06;98416.56;6948230;28;20227;-84
2023/04/28 10:47:17;;;;;;;4.77;4.10;;;;;;;21.03;59.46;98405.22;6965032;28;20357;-83
2023/04/28 10:51:11;;;;;;;5.80;4.47;;;;;;;21.05;59.84;98411.22;6989203;28;20209;-84
2023/04/28 10:54:33;;;;;;;4.60;4.20;;;;;;;20.88;60.10;98397.03;6966752;28;20261;-86
2023/04/28 10:58:27;;;;;;;5.03;4.13;;;;;;;21.45;58.82;98409.09;7003755;28;20609;-84
2023/04/28 11:01:51;;;;;;;4.00;3.60;;;;;;;21.21;57.64;98377.16;7003285;28;20216;-86
2023/04/28 11:05:14;;;;;;;5.57;4.30;;;;;;;21.13;59.31;98408.72;7003797;28;20310;-84
2023/04/28 11:08:36;;;;;;;5.07;4.57;;;;;;;20.80;60.12;98421.47;6981496;28;20231;-86
2023/04/28 11:12:09;;;;;;;6.20;4.43;;;;;;;21.48;59.72;98426.91;6975969;28;20226;-85
2023/04/28 11:15:31;;;;;;;5.30;4.40;;;;;;;22.24;57.77;98422.50;6948654;28;20705;-83
2023/04/28 11:18:57;;;;;;;7.13;4.60;;;;;;;22.02;58.86;98416.66;6950164;28;20204;-88
2023/04/28 11:22:21;;;;;;;4.80;3.90;;;;;;;21.52;58.23;98420.56;6976327;28;20195;-83
2023/04/28 11:25:58;;;;;;;5.27;4.27;;;;;;;21.80;59.96;98424.50;6975731;28;20221;-83
2023/04/28 11:29:31;;;;;;;4.57;3.60;;;;;;;22.54;57.08;98411.22;6974080;28;20240;-82
2023/04/28 11:32:52;;;;;;;4.93;3.90;;;;;;;22.61;57.39;98418.00;6976624;28;20279;-83
2023/04/28 11:36:30;;;;;;;5.93;3.90;;;;;;;22.89;57.60;98410.81;6977237;28;20711;-81
2023/04/28 11:39:52;;;;;;;4.20;3.80;;;;;;;22.68;56.31;98401.16;6977332;28;20200;-82
2023/04/28 11:43:14;;;;;;;6.43;4.37;;;;;;;22.39;57.62;98417.66;6976882;28;20223;-82
2023/04/28 11:46:35;;;;;;;5.03;4.20;;;;;;;22.68;58.24;98403.91;6977061;28;20242;-83
2023/04/28 11:49:57;;;;;;;3.37;2.77;;;;;;;22.25;58.34;98396.66;6974607;28;20596;-83
2023/04/28 11:53:22;;;;;;;2.27;2.07;;;;;;;22.55;58.90;98402.66;6980273;28;20214;-82
2023/04/28 11:56:44;;;;;;;2.33;1.93;;;;;;;22.74;57.59;98373.34;6981018;28;20209;-83
2023/04/28 12:00:13;;;;;;;1.93;1.77;;;;;;;22.31;57.21;98392.75;6980735;28;20205;-83
2023/04/28 12:03:42;;;;;;;2.30;1.90;;;;;;;22.25;58.25;98378.22;6980962;28;20216;-83
2023/04/28 12:07:05;;;;;;;1.93;1.73;;;;;;;22.48;57.62;98384.91;6980981;28;20597;-83
2023/04/28 12:10:28;;;;;;;1.93;1.60;;;;;;;22.42;57.37;98388.78;6980696;28;20232;-82
2023/04/28 12:14:06;;;;;;;2.03;1.83;;;;;;;22.64;57.22;98397.34;6979680;28;20260;-84
2023/04/28 12:17:29;;;;;;;2.23;2.03;;;;;;;22.28;57.96;98385.06;6979228;28;20195;-86
2023/04/28 12:20:51;;;;;;;2.90;2.03;;;;;;;22.72;57.21;98378.28;6989132;28;20201;-86
2023/04/28 12:24:16;;;;;;;1.70;1.60;;;;;;;22.42;58.06;98397.84;6982171;28;20224;-85
2023/04/28 12:27:40;;;;;;;3.20;2.40;;;;;;;21.76;60.74;98396.81;6969212;28;20245;-85
2023/04/28 12:31:04;;;;;;;2.50;2.30;;;;;;;21.64;60.53;98371.63;6993821;28;20200;-83
2023/04/28 12:34:26;;;;;;;4.70;2.40;;;;;;;21.83;59.95;98386.31;6981083;28;20387;-85
2023/04/28 12:37:47;;;;;;;4.60;2.50;;;;;;;22.21;59.18;98390.94;6980819;28;20231;-85
2023/04/28 12:41:09;;;;;;;2.93;2.40;;;;;;;22.24;59.15;98409.56;6979600;28;20209;-85
2023/04/28 12:44:36;;;;;;;3.30;2.33;;;;;;;21.16;61.68;98428.47;6978184;28;20264;-87
2023/04/28 12:47:58;;;;;;;7.30;4.60;;;;;;;20.75;61.73;98372.16;6980482;28;20214;-88
2023/04/28 12:51:20;;;;;;;2.57;1.60;;;;;;;20.78;62.56;98411.59;6979871;28;20294;-84
2023/04/28 12:54:45;;;;;;;1.70;1.60;;;;;;;20.94;61.79;98414.31;6982942;28;20231;-86
2023/04/28 12:58:07;;;;;;;2.73;1.90;;;;;;;20.94;62.20;98434.28;6985408;28;20262;-85
2023/04/28 13:01:30;;;;;;;2.30;2.07;;;;;;;20.77;61.94;98416.53;6979186;28;20211;-86
2023/04/28 13:04:51;;;;;;;1.90;1.67;;;;;;;19.57;63.17;98362.78;6979174;28;20564;-85
2023/04/28 13:08:13;;;;;;;1.47;1.37;;;;;;;20.23;61.90;98410.91;6977970;28;20754;-84
2023/04/28 13:11:34;;;;;;;2.33;1.37;;;;;;;20.53;60.03;98416.34;6978504;28;20243;-84
2023/04/28 13:14:56;;;;;;;1.20;1.20;;;;;;;20.35;58.54;98416.91;6978177;28;20313;-84
2023/04/28 13:18:19;;;;;;;2.03;1.57;;;;;;;21.02;58.04;98398.91;6979835;28;20196;-85
2023/04/28 13:21:41;;;;;;;1.10;1.10;;;;;;;21.02;56.93;98393.41;6979635;28;20285;-85
2023/04/28 13:25:03;;;;;;;1.10;1.07;;;;;;;21.11;56.94;98379.94;7006350;28;20225;-85
2023/04/28 13:28:25;;;;;;;1.57;1.27;;;;;;;21.07;57.01;98364.34;6980078;28;20223;-85
2023/04/28 13:31:46;;;;;;;0.97;0.97;;;;;;;21.89;54.23;98376.13;6978199;28;20245;-85
2023/04/28 13:35:09;;;;;;;1.13;1.07;;;;;;;22.04;53.57;98396.03;6975661;28;20357;-84
2023/04/28 13:38:31;;;;;;;1.37;1.10;;;;;;;22.00;53.05;98363.94;6994429;28;20551;-85
2023/04/28 13:41:53;;;;;;;1.53;1.07;;;;;;;21.91;53.15;98361.03;6983161;28;20220;-84
2023/04/28 13:45:14;;;;;;;0.90;0.90;;;;;;;21.68;54.35;98378.22;6990706;28;20615;-84
2023/04/28 13:48:36;;;;;;;1.13;1.10;;;;;;;21.88;54.06;98383.53;6978277;28;20218;-85
2023/04/28 13:51:59;;;;;;;2.33;1.17;;;;;;;21.89;54.24;98379.69;6976395;28;20294;-85
2023/04/28 13:55:26;;;;;;;1.07;1.07;;;;;;;21.75;53.19;98372.41;6975726;28;20215;-86
2023/04/28 13:58:47;;;;;;;1.80;1.17;;;;;;;21.70;52.25;98378.75;6977448;28;20204;-85
2023/04/28 14:02:10;;;;;;;1.23;1.13;;;;;;;21.26;53.97;98308.56;6978982;28;20273;-87
2023/04/28 14:05:32;;;;;;;1.87;1.07;;;;;;;21.96;53.87;98360.94;6977405;28;20218;-87
2023/04/28 14:08:55;;;;;;;2.40;1.73;;;;;;;21.68;54.88;98367.25;6977866;28;20218;-87
2023/04/28 14:12:17;;;;;;;4.50;4.10;;;;;;;20.76;55.39;98338.19;6959077;28;20578;-85
2023/04/28 14:15:39;;;;;;;2.10;1.73;;;;;;;20.58;57.01;98350.56;6976608;28;20219;-86
2023/04/28 14:19:00;;;;;;;1.40;1.30;;;;;;;20.93;56.07;98366.88;6978022;28;20647;-85
2023/04/28 14:22:22;;;;;;;1.60;1.50;;;;;;;20.35;57.90;98345.72;6977321;28;20261;-85
2023/04/28 14:25:45;;;;;;;1.57;1.43;;;;;;;20.89;58.27;98341.16;6981425;28;20219;-85
2023/04/28 14:29:07;;;;;;;1.37;1.27;;;;;;;21.32;55.53;98351.31;6994110;28;20230;-85
2023/04/28 14:32:28;;;;;;;1.33;1.20;;;;;;;21.71;55.21;98372.16;6979697;28;20688;-86
2023/04/28 14:35:50;;;;;;;1.50;1.40;;;;;;;21.50;54.49;98354.19;6968808;28;21063;-85
2023/04/28 14:39:11;;;;;;;1.80;1.20;;;;;;;21.54;55.63;98314.09;6977206;28;20683;-85
2023/04/28 14:42:36;;;;;;;1.57;1.30;;;;;;;21.29;55.00;98286.03;6975443;28;20235;-85
2023/04/28 14:45:57;;;;;;;2.57;1.40;;;;;;;21.33;55.37;98269.88;6976466;28;20230;-85
2023/04/28 14:49:19;;;;;;;1.80;1.70;;;;;;;21.60;57.21;98298.41;6986040;28;20356;-85
2023/04/28 14:52:41;;;;;;;1.83;1.73;;;;;;;21.60;57.01;98293.72;6965192;28;20255;-85
2023/04/28 14:56:04;;;;;;;1.70;1.60;;;;;;;21.77;56.92;98337.28;6979097;28;20225;-85
2023/04/28 14:59:27;;;;;;;1.20;1.20;;;;;;;21.97;54.09;98321.44;6979708;28;20214;-86
2023/04/28 15:02:48;;;;;;;1.63;1.13;;;;;;;21.83;55.73;98309.47;6975304;28;20726;-86
2023/04/28 15:06:10;;;;;;;1.43;1.27;;;;;;;21.81;56.38;98297.97;6961591;28;20314;-88
2023/04/28 15:09:32;;;;;;;1.60;1.50;;;;;;;22.26;54.86;98316.72;6975634;28;20264;-86
2023/04/28 15:12:54;;;;;;;1.83;1.10;;;;;;;21.82;54.90;98272.16;6972991;28;20322;-85
2023/04/28 15:16:17;;;;;;;1.60;1.50;;;;;;;21.97;55.91;98320.59;6948860;28;20234;-87
2023/04/28 15:19:38;;;;;;;2.50;1.63;;;;;;;21.53;57.53;98270.50;6949078;28;20212;-87
2023/04/28 15:23:00;;;;;;;2.03;1.60;;;;;;;22.05;57.35;98334.50;6955272;28;20278;-87
2023/04/28 15:26:22;;;;;;;2.27;1.53;;;;;;;21.25;58.81;98285.00;6968580;28;20247;-88
2023/04/28 15:29:44;;;;;;;2.43;1.43;;;;;;;21.53;58.42;98336.34;6959197;28;20228;-87
2023/04/28 15:33:07;;;;;;;1.60;1.50;;;;;;;20.98;59.84;98325.75;6954199;28;20197;-87
2023/04/28 15:36:28;;;;;;;1.77;1.67;;;;;;;21.47;59.40;98319.09;6954267;28;20329;-87
2023/04/28 15:39:50;;;;;;;1.60;1.50;;;;;;;20.83;61.49;98311.28;6954405;28;20222;-87
2023/04/28 15:43:12;;;;;;;1.73;1.47;;;;;;;20.48;62.53;98308.72;6953564;28;20285;-87
2023/04/28 15:46:35;;;;;;;2.33;1.93;;;;;;;21.25;60.83;98334.34;6976644;28;20714;-87
2023/04/28 15:49:58;;;;;;;2.83;1.80;;;;;;;21.35;59.96;98288.47;6980122;28;20230;-86
2023/04/28 15:53:21;;;;;;;1.50;1.40;;;;;;;21.77;58.18;98307.09;6980197;28;20205;-87
2023/04/28 15:56:43;;;;;;;2.00;1.90;;;;;;;21.56;58.56;98298.19;6981056;28;20595;-86